sensor_id;sensor_type;location;lat;lon;timestamp;P1;durP1;ratioP1;P2;durP2;ratioP2
21494;SDS011;10909;53.590;10.054;2022-12-18T00:01:14;12.47;;;8.77;;
21494;SDS011;10909;53.590;10.054;2022-12-18T00:03:40;12.00;;;7.90;;
21494;SDS011;10909;53.590;10.054;2022-12-18T00:06:06;11.53;;;8.43;;
21494;SDS011;10909;53.590;10.054;2022-12-18T00:08:33;11.00;;;8.10;;
21494;SDS011;10909;53.590;10.054;2022-12-18T00:11:07;10.13;;;7.73;;
21494;SDS011;10909;53.590;10.054;2022-12-18T00:13:34;11.80;;;7.37;;
21494;SDS011;10909;53.590;10.054;2022-12-18T00:16:07;12.87;;;8.43;;
21494;SDS011;10909;53.590;10.054;2022-12-18T00:18:36;11.90;;;8.10;;
21494;SDS011;10909;53.590;10.054;2022-12-18T00:21:04;12.00;;;8.50;;
21494;SDS011;10909;53.590;10.054;2022-12-18T00:23:31;12.63;;;8.70;;
21494;SDS011;10909;53.590;10.054;2022-12-18T00:26:09;11.37;;;7.93;;
21494;SDS011;10909;53.590;10.054;2022-12-18T00:28:40;11.17;;;8.07;;
21494;SDS011;10909;53.590;10.054;2022-12-18T00:31:24;10.20;;;7.80;;
21494;SDS011;10909;53.590;10.054;2022-12-18T00:33:50;11.30;;;8.47;;
21494;SDS011;10909;53.590;10.054;2022-12-18T00:36:17;10.93;;;7.40;;
21494;SDS011;10909;53.590;10.054;2022-12-18T00:38:46;10.67;;;7.40;;
21494;SDS011;10909;53.590;10.054;2022-12-18T00:41:13;10.60;;;7.40;;
21494;SDS011;10909;53.590;10.054;2022-12-18T00:44:03;14.10;;;8.70;;
21494;SDS011;10909;53.590;10.054;2022-12-18T00:46:30;10.77;;;8.03;;
21494;SDS011;10909;53.590;10.054;2022-12-18T00:48:57;9.93;;;7.90;;
21494;SDS011;10909;53.590;10.054;2022-12-18T00:51:23;10.03;;;7.50;;
21494;SDS011;10909;53.590;10.054;2022-12-18T00:53:49;11.23;;;7.87;;
21494;SDS011;10909;53.590;10.054;2022-12-18T00:56:15;10.40;;;7.97;;
21494;SDS011;10909;53.590;10.054;2022-12-18T00:58:41;9.63;;;7.83;;
21494;SDS011;10909;53.590;10.054;2022-12-18T01:01:07;10.40;;;8.00;;
21494;SDS011;10909;53.590;10.054;2022-12-18T01:03:33;9.70;;;7.17;;
21494;SDS011;10909;53.590;10.054;2022-12-18T01:05:59;10.47;;;7.53;;
21494;SDS011;10909;53.590;10.054;2022-12-18T01:08:29;10.77;;;8.20;;
21494;SDS011;10909;53.590;10.054;2022-12-18T01:10:55;12.67;;;8.17;;
21494;SDS011;10909;53.590;10.054;2022-12-18T01:13:21;10.07;;;8.07;;
21494;SDS011;10909;53.590;10.054;2022-12-18T01:15:50;9.73;;;7.40;;
21494;SDS011;10909;53.590;10.054;2022-12-18T01:18:16;11.00;;;7.60;;
21494;SDS011;10909;53.590;10.054;2022-12-18T01:20:41;10.23;;;7.67;;
21494;SDS011;10909;53.590;10.054;2022-12-18T01:23:07;11.73;;;7.27;;
21494;SDS011;10909;53.590;10.054;2022-12-18T01:25:33;10.23;;;7.13;;
21494;SDS011;10909;53.590;10.054;2022-12-18T01:28:01;9.70;;;7.27;;
21494;SDS011;10909;53.590;10.054;2022-12-18T01:30:27;9.40;;;7.03;;
21494;SDS011;10909;53.590;10.054;2022-12-18T01:32:52;11.87;;;7.47;;
21494;SDS011;10909;53.590;10.054;2022-12-18T01:35:19;10.57;;;7.40;;
21494;SDS011;10909;53.590;10.054;2022-12-18T01:37:45;10.67;;;7.27;;
21494;SDS011;10909;53.590;10.054;2022-12-18T01:40:11;8.27;;;6.97;;
21494;SDS011;10909;53.590;10.054;2022-12-18T01:42:37;8.17;;;6.70;;
21494;SDS011;10909;53.590;10.054;2022-12-18T01:50:14;10.90;;;7.27;;
21494;SDS011;10909;53.590;10.054;2022-12-18T01:52:59;9.10;;;7.53;;
21494;SDS011;10909;53.590;10.054;2022-12-18T01:55:29;10.77;;;7.27;;
21494;SDS011;10909;53.590;10.054;2022-12-18T01:57:57;13.13;;;7.63;;
21494;SDS011;10909;53.590;10.054;2022-12-18T02:00:25;10.07;;;7.20;;
21494;SDS011;10909;53.590;10.054;2022-12-18T02:02:51;11.10;;;7.63;;
21494;SDS011;10909;53.590;10.054;2022-12-18T02:05:19;8.77;;;7.00;;
21494;SDS011;10909;53.590;10.054;2022-12-18T02:10:41;11.83;;;7.60;;
21494;SDS011;10909;53.590;10.054;2022-12-18T02:19:04;9.47;;;7.10;;
21494;SDS011;10909;53.590;10.054;2022-12-18T02:21:45;9.67;;;7.50;;
21494;SDS011;10909;53.590;10.054;2022-12-18T02:27:08;9.33;;;7.13;;
21494;SDS011;10909;53.590;10.054;2022-12-18T02:32:08;9.50;;;6.83;;
21494;SDS011;10909;53.590;10.054;2022-12-18T02:34:39;9.77;;;6.87;;
21494;SDS011;10909;53.590;10.054;2022-12-18T02:37:07;8.63;;;6.73;;
21494;SDS011;10909;53.590;10.054;2022-12-18T02:39:39;8.37;;;6.50;;
21494;SDS011;10909;53.590;10.054;2022-12-18T02:42:07;8.43;;;6.70;;
21494;SDS011;10909;53.590;10.054;2022-12-18T02:44:49;8.90;;;6.90;;
21494;SDS011;10909;53.590;10.054;2022-12-18T02:47:20;9.77;;;6.43;;
21494;SDS011;10909;53.590;10.054;2022-12-18T02:58:02;9.17;;;6.30;;
21494;SDS011;10909;53.590;10.054;2022-12-18T03:00:46;8.90;;;6.63;;
21494;SDS011;10909;53.590;10.054;2022-12-18T03:06:04;10.40;;;6.40;;
21494;SDS011;10909;53.590;10.054;2022-12-18T03:08:47;8.43;;;5.97;;
21494;SDS011;10909;53.590;10.054;2022-12-18T03:11:16;9.57;;;6.63;;
21494;SDS011;10909;53.590;10.054;2022-12-18T03:14:02;8.57;;;6.50;;
21494;SDS011;10909;53.590;10.054;2022-12-18T03:16:31;8.67;;;6.70;;
21494;SDS011;10909;53.590;10.054;2022-12-18T03:19:01;7.80;;;6.30;;
21494;SDS011;10909;53.590;10.054;2022-12-18T03:21:34;11.23;;;7.03;;
21494;SDS011;10909;53.590;10.054;2022-12-18T03:24:06;8.53;;;6.67;;
21494;SDS011;10909;53.590;10.054;2022-12-18T03:26:33;8.13;;;6.13;;
21494;SDS011;10909;53.590;10.054;2022-12-18T03:29:07;7.50;;;6.20;;
21494;SDS011;10909;53.590;10.054;2022-12-18T03:31:37;9.87;;;6.43;;
21494;SDS011;10909;53.590;10.054;2022-12-18T03:34:08;8.30;;;6.13;;
21494;SDS011;10909;53.590;10.054;2022-12-18T03:36:39;8.17;;;5.93;;
21494;SDS011;10909;53.590;10.054;2022-12-18T03:39:05;10.20;;;6.00;;
21494;SDS011;10909;53.590;10.054;2022-12-18T03:47:09;8.90;;;6.00;;
21494;SDS011;10909;53.590;10.054;2022-12-18T03:49:39;8.67;;;6.03;;
21494;SDS011;10909;53.590;10.054;2022-12-18T03:52:30;7.63;;;6.07;;
21494;SDS011;10909;53.590;10.054;2022-12-18T03:55:05;6.83;;;5.83;;
21494;SDS011;10909;53.590;10.054;2022-12-18T03:57:33;6.80;;;5.97;;
21494;SDS011;10909;53.590;10.054;2022-12-18T04:00:06;7.53;;;5.90;;
21494;SDS011;10909;53.590;10.054;2022-12-18T04:02:40;7.37;;;6.00;;
21494;SDS011;10909;53.590;10.054;2022-12-18T04:05:09;7.57;;;6.00;;
21494;SDS011;10909;53.590;10.054;2022-12-18T04:07:36;10.17;;;5.80;;
21494;SDS011;10909;53.590;10.054;2022-12-18T04:10:11;7.90;;;6.33;;
21494;SDS011;10909;53.590;10.054;2022-12-18T04:12:38;8.17;;;5.60;;
21494;SDS011;10909;53.590;10.054;2022-12-18T04:15:04;7.47;;;5.50;;
21494;SDS011;10909;53.590;10.054;2022-12-18T04:17:31;8.60;;;5.83;;
21494;SDS011;10909;53.590;10.054;2022-12-18T04:19:57;9.90;;;6.50;;
21494;SDS011;10909;53.590;10.054;2022-12-18T04:22:22;8.57;;;6.33;;
21494;SDS011;10909;53.590;10.054;2022-12-18T04:24:48;8.20;;;6.07;;
21494;SDS011;10909;53.590;10.054;2022-12-18T04:27:14;9.27;;;6.07;;
21494;SDS011;10909;53.590;10.054;2022-12-18T04:29:39;7.30;;;6.23;;
21494;SDS011;10909;53.590;10.054;2022-12-18T04:32:06;7.70;;;5.93;;
21494;SDS011;10909;53.590;10.054;2022-12-18T04:34:32;7.33;;;5.60;;
21494;SDS011;10909;53.590;10.054;2022-12-18T04:36:58;7.37;;;5.90;;
21494;SDS011;10909;53.590;10.054;2022-12-18T04:39:23;7.40;;;6.10;;
21494;SDS011;10909;53.590;10.054;2022-12-18T04:41:52;9.90;;;6.20;;
21494;SDS011;10909;53.590;10.054;2022-12-18T04:44:17;7.37;;;6.10;;
21494;SDS011;10909;53.590;10.054;2022-12-18T04:46:43;7.83;;;5.40;;
21494;SDS011;10909;53.590;10.054;2022-12-18T04:49:09;7.43;;;5.83;;
21494;SDS011;10909;53.590;10.054;2022-12-18T04:51:35;8.30;;;5.80;;
21494;SDS011;10909;53.590;10.054;2022-12-18T04:54:02;8.90;;;5.93;;
21494;SDS011;10909;53.590;10.054;2022-12-18T04:56:28;8.53;;;6.10;;
21494;SDS011;10909;53.590;10.054;2022-12-18T04:58:55;7.00;;;6.13;;
21494;SDS011;10909;53.590;10.054;2022-12-18T05:01:20;7.07;;;5.83;;
21494;SDS011;10909;53.590;10.054;2022-12-18T05:03:46;7.47;;;5.77;;
21494;SDS011;10909;53.590;10.054;2022-12-18T05:06:12;6.70;;;5.27;;
21494;SDS011;10909;53.590;10.054;2022-12-18T05:08:38;8.07;;;5.83;;
21494;SDS011;10909;53.590;10.054;2022-12-18T05:11:05;8.23;;;5.87;;
21494;SDS011;10909;53.590;10.054;2022-12-18T05:13:33;6.73;;;5.60;;
21494;SDS011;10909;53.590;10.054;2022-12-18T05:16:00;7.73;;;6.17;;
21494;SDS011;10909;53.590;10.054;2022-12-18T05:18:26;6.37;;;5.60;;
21494;SDS011;10909;53.590;10.054;2022-12-18T05:20:52;8.03;;;5.47;;
21494;SDS011;10909;53.590;10.054;2022-12-18T05:23:19;8.70;;;5.97;;
21494;SDS011;10909;53.590;10.054;2022-12-18T05:25:52;7.70;;;5.73;;
21494;SDS011;10909;53.590;10.054;2022-12-18T05:28:19;6.90;;;5.47;;
21494;SDS011;10909;53.590;10.054;2022-12-18T05:30:52;7.87;;;6.00;;
21494;SDS011;10909;53.590;10.054;2022-12-18T05:33:21;9.13;;;6.10;;
21494;SDS011;10909;53.590;10.054;2022-12-18T05:35:51;7.77;;;5.93;;
21494;SDS011;10909;53.590;10.054;2022-12-18T05:38:18;7.00;;;5.70;;
21494;SDS011;10909;53.590;10.054;2022-12-18T05:40:44;7.30;;;5.87;;
21494;SDS011;10909;53.590;10.054;2022-12-18T05:43:10;7.57;;;5.73;;
21494;SDS011;10909;53.590;10.054;2022-12-18T05:45:39;8.83;;;6.20;;
21494;SDS011;10909;53.590;10.054;2022-12-18T05:48:05;9.30;;;6.17;;
21494;SDS011;10909;53.590;10.054;2022-12-18T05:50:33;7.70;;;5.80;;
21494;SDS011;10909;53.590;10.054;2022-12-18T05:53:01;7.17;;;5.67;;
21494;SDS011;10909;53.590;10.054;2022-12-18T05:55:27;9.43;;;6.47;;
21494;SDS011;10909;53.590;10.054;2022-12-18T05:57:53;7.13;;;6.40;;
21494;SDS011;10909;53.590;10.054;2022-12-18T06:00:19;7.77;;;6.33;;
21494;SDS011;10909;53.590;10.054;2022-12-18T06:02:48;10.00;;;6.27;;
21494;SDS011;10909;53.590;10.054;2022-12-18T06:05:13;8.33;;;6.57;;
21494;SDS011;10909;53.590;10.054;2022-12-18T06:07:39;8.77;;;6.57;;
21494;SDS011;10909;53.590;10.054;2022-12-18T06:10:05;8.53;;;6.50;;
21494;SDS011;10909;53.590;10.054;2022-12-18T06:12:31;10.17;;;6.37;;
21494;SDS011;10909;53.590;10.054;2022-12-18T06:14:58;9.27;;;6.80;;
21494;SDS011;10909;53.590;10.054;2022-12-18T06:17:28;7.40;;;6.33;;
21494;SDS011;10909;53.590;10.054;2022-12-18T06:19:54;9.70;;;6.60;;
21494;SDS011;10909;53.590;10.054;2022-12-18T06:22:20;9.30;;;6.90;;
21494;SDS011;10909;53.590;10.054;2022-12-18T06:24:46;7.63;;;6.60;;
21494;SDS011;10909;53.590;10.054;2022-12-18T06:27:12;8.73;;;7.03;;
21494;SDS011;10909;53.590;10.054;2022-12-18T06:29:38;8.47;;;7.07;;
21494;SDS011;10909;53.590;10.054;2022-12-18T06:32:04;9.30;;;6.83;;
21494;SDS011;10909;53.590;10.054;2022-12-18T06:34:30;9.50;;;6.50;;
21494;SDS011;10909;53.590;10.054;2022-12-18T06:36:57;8.87;;;6.93;;
21494;SDS011;10909;53.590;10.054;2022-12-18T06:39:23;8.33;;;6.93;;
21494;SDS011;10909;53.590;10.054;2022-12-18T06:41:49;9.37;;;7.23;;
21494;SDS011;10909;53.590;10.054;2022-12-18T06:44:14;8.07;;;6.50;;
21494;SDS011;10909;53.590;10.054;2022-12-18T06:46:40;8.40;;;6.73;;
21494;SDS011;10909;53.590;10.054;2022-12-18T06:49:06;10.93;;;7.50;;
21494;SDS011;10909;53.590;10.054;2022-12-18T06:51:32;9.20;;;6.93;;
21494;SDS011;10909;53.590;10.054;2022-12-18T06:53:57;7.37;;;5.50;;
21494;SDS011;10909;53.590;10.054;2022-12-18T06:56:23;9.03;;;6.70;;
21494;SDS011;10909;53.590;10.054;2022-12-18T06:58:50;8.00;;;6.60;;
21494;SDS011;10909;53.590;10.054;2022-12-18T07:01:15;10.23;;;6.53;;
21494;SDS011;10909;53.590;10.054;2022-12-18T07:03:41;11.03;;;6.80;;
21494;SDS011;10909;53.590;10.054;2022-12-18T07:06:40;9.53;;;7.10;;
21494;SDS011;10909;53.590;10.054;2022-12-18T07:08:59;9.43;;;6.87;;
21494;SDS011;10909;53.590;10.054;2022-12-18T07:11:25;8.80;;;6.80;;
21494;SDS011;10909;53.590;10.054;2022-12-18T07:13:51;8.53;;;7.43;;
21494;SDS011;10909;53.590;10.054;2022-12-18T07:16:18;10.27;;;7.40;;
21494;SDS011;10909;53.590;10.054;2022-12-18T07:18:45;7.80;;;6.50;;
21494;SDS011;10909;53.590;10.054;2022-12-18T07:21:13;9.13;;;7.13;;
21494;SDS011;10909;53.590;10.054;2022-12-18T07:23:40;8.60;;;6.90;;
21494;SDS011;10909;53.590;10.054;2022-12-18T07:26:06;8.10;;;6.53;;
21494;SDS011;10909;53.590;10.054;2022-12-18T07:28:35;8.53;;;6.40;;
21494;SDS011;10909;53.590;10.054;2022-12-18T07:31:11;9.13;;;6.00;;
21494;SDS011;10909;53.590;10.054;2022-12-18T07:33:38;10.93;;;7.20;;
21494;SDS011;10909;53.590;10.054;2022-12-18T07:36:04;11.43;;;7.27;;
21494;SDS011;10909;53.590;10.054;2022-12-18T07:38:31;8.63;;;7.03;;
21494;SDS011;10909;53.590;10.054;2022-12-18T07:41:01;10.17;;;6.90;;
21494;SDS011;10909;53.590;10.054;2022-12-18T07:43:38;10.63;;;7.73;;
21494;SDS011;10909;53.590;10.054;2022-12-18T07:46:04;9.30;;;7.27;;
21494;SDS011;10909;53.590;10.054;2022-12-18T07:48:31;11.27;;;7.63;;
21494;SDS011;10909;53.590;10.054;2022-12-18T07:51:00;8.83;;;6.87;;
21494;SDS011;10909;53.590;10.054;2022-12-18T07:53:29;10.23;;;7.43;;
21494;SDS011;10909;53.590;10.054;2022-12-18T07:55:56;10.23;;;7.57;;
21494;SDS011;10909;53.590;10.054;2022-12-18T07:58:22;10.07;;;7.60;;
21494;SDS011;10909;53.590;10.054;2022-12-18T08:00:47;9.73;;;7.40;;
21494;SDS011;10909;53.590;10.054;2022-12-18T08:03:13;10.37;;;8.37;;
21494;SDS011;10909;53.590;10.054;2022-12-18T08:05:39;8.80;;;7.40;;
21494;SDS011;10909;53.590;10.054;2022-12-18T08:08:04;10.90;;;8.20;;
21494;SDS011;10909;53.590;10.054;2022-12-18T08:10:30;9.80;;;7.87;;
21494;SDS011;10909;53.590;10.054;2022-12-18T08:12:56;9.10;;;6.67;;
21494;SDS011;10909;53.590;10.054;2022-12-18T08:15:21;9.53;;;7.57;;
21494;SDS011;10909;53.590;10.054;2022-12-18T08:17:47;9.60;;;7.10;;
21494;SDS011;10909;53.590;10.054;2022-12-18T08:20:13;10.13;;;7.87;;
21494;SDS011;10909;53.590;10.054;2022-12-18T08:22:40;9.47;;;6.93;;
21494;SDS011;10909;53.590;10.054;2022-12-18T08:25:06;10.73;;;7.67;;
21494;SDS011;10909;53.590;10.054;2022-12-18T08:27:33;11.77;;;7.63;;
21494;SDS011;10909;53.590;10.054;2022-12-18T08:29:58;9.13;;;7.57;;
21494;SDS011;10909;53.590;10.054;2022-12-18T08:32:24;10.90;;;7.93;;
21494;SDS011;10909;53.590;10.054;2022-12-18T08:34:51;9.70;;;7.67;;
21494;SDS011;10909;53.590;10.054;2022-12-18T08:37:17;11.07;;;8.07;;
21494;SDS011;10909;53.590;10.054;2022-12-18T08:39:43;9.40;;;7.97;;
21494;SDS011;10909;53.590;10.054;2022-12-18T08:42:08;10.20;;;7.67;;
21494;SDS011;10909;53.590;10.054;2022-12-18T08:44:53;10.53;;;6.93;;
21494;SDS011;10909;53.590;10.054;2022-12-18T08:47:19;10.63;;;7.77;;
21494;SDS011;10909;53.590;10.054;2022-12-18T08:49:45;11.20;;;8.20;;
21494;SDS011;10909;53.590;10.054;2022-12-18T08:52:10;9.93;;;7.70;;
21494;SDS011;10909;53.590;10.054;2022-12-18T08:54:39;11.10;;;8.60;;
21494;SDS011;10909;53.590;10.054;2022-12-18T08:57:04;9.83;;;8.23;;
21494;SDS011;10909;53.590;10.054;2022-12-18T08:59:30;9.83;;;7.63;;
21494;SDS011;10909;53.590;10.054;2022-12-18T09:01:55;8.93;;;7.40;;
21494;SDS011;10909;53.590;10.054;2022-12-18T09:04:21;11.10;;;8.37;;
21494;SDS011;10909;53.590;10.054;2022-12-18T09:06:47;10.00;;;7.70;;
21494;SDS011;10909;53.590;10.054;2022-12-18T09:09:13;11.97;;;7.37;;
21494;SDS011;10909;53.590;10.054;2022-12-18T09:11:39;10.97;;;8.00;;
21494;SDS011;10909;53.590;10.054;2022-12-18T09:14:05;11.90;;;8.07;;
21494;SDS011;10909;53.590;10.054;2022-12-18T09:16:31;9.27;;;7.00;;
21494;SDS011;10909;53.590;10.054;2022-12-18T09:18:57;12.73;;;8.03;;
21494;SDS011;10909;53.590;10.054;2022-12-18T09:21:27;10.23;;;8.30;;
21494;SDS011;10909;53.590;10.054;2022-12-18T09:23:55;11.00;;;8.57;;
21494;SDS011;10909;53.590;10.054;2022-12-18T09:26:22;11.47;;;8.80;;
21494;SDS011;10909;53.590;10.054;2022-12-18T09:28:49;10.43;;;8.40;;
21494;SDS011;10909;53.590;10.054;2022-12-18T09:31:16;9.97;;;8.00;;
21494;SDS011;10909;53.590;10.054;2022-12-18T09:33:43;10.53;;;7.70;;
21494;SDS011;10909;53.590;10.054;2022-12-18T09:36:11;9.87;;;7.83;;
21494;SDS011;10909;53.590;10.054;2022-12-18T09:38:38;9.43;;;7.30;;
21494;SDS011;10909;53.590;10.054;2022-12-18T09:41:05;12.47;;;8.27;;
21494;SDS011;10909;53.590;10.054;2022-12-18T09:43:54;10.63;;;7.50;;
21494;SDS011;10909;53.590;10.054;2022-12-18T09:46:28;10.90;;;7.73;;
21494;SDS011;10909;53.590;10.054;2022-12-18T09:49:00;10.93;;;8.07;;
21494;SDS011;10909;53.590;10.054;2022-12-18T09:51:38;10.90;;;7.83;;
21494;SDS011;10909;53.590;10.054;2022-12-18T09:54:18;9.57;;;7.53;;
21494;SDS011;10909;53.590;10.054;2022-12-18T09:56:47;11.53;;;7.83;;
21494;SDS011;10909;53.590;10.054;2022-12-18T10:01:51;10.13;;;7.60;;
21494;SDS011;10909;53.590;10.054;2022-12-18T10:04:17;10.63;;;7.77;;
21494;SDS011;10909;53.590;10.054;2022-12-18T10:07:01;9.23;;;7.10;;
21494;SDS011;10909;53.590;10.054;2022-12-18T10:09:30;10.03;;;7.40;;
21494;SDS011;10909;53.590;10.054;2022-12-18T10:12:23;9.60;;;7.33;;
21494;SDS011;10909;53.590;10.054;2022-12-18T10:15:13;8.60;;;6.87;;
21494;SDS011;10909;53.590;10.054;2022-12-18T10:20:45;11.70;;;7.60;;
21494;SDS011;10909;53.590;10.054;2022-12-18T10:23:28;9.57;;;7.13;;
21494;SDS011;10909;53.590;10.054;2022-12-18T10:26:06;9.83;;;7.23;;
21494;SDS011;10909;53.590;10.054;2022-12-18T10:28:34;10.63;;;7.17;;
21494;SDS011;10909;53.590;10.054;2022-12-18T10:31:04;10.50;;;7.30;;
21494;SDS011;10909;53.590;10.054;2022-12-18T10:33:43;10.77;;;7.40;;
21494;SDS011;10909;53.590;10.054;2022-12-18T10:36:10;11.27;;;7.33;;
21494;SDS011;10909;53.590;10.054;2022-12-18T10:38:36;11.50;;;7.83;;
21494;SDS011;10909;53.590;10.054;2022-12-18T10:43:37;10.27;;;7.00;;
21494;SDS011;10909;53.590;10.054;2022-12-18T10:46:12;11.90;;;7.40;;
21494;SDS011;10909;53.590;10.054;2022-12-18T10:48:47;10.20;;;6.80;;
21494;SDS011;10909;53.590;10.054;2022-12-18T10:51:30;11.80;;;7.40;;
21494;SDS011;10909;53.590;10.054;2022-12-18T10:54:02;9.60;;;7.43;;
21494;SDS011;10909;53.590;10.054;2022-12-18T10:56:39;11.23;;;7.73;;
21494;SDS011;10909;53.590;10.054;2022-12-18T10:59:06;10.00;;;7.70;;
21494;SDS011;10909;53.590;10.054;2022-12-18T11:04:26;10.67;;;7.87;;
21494;SDS011;10909;53.590;10.054;2022-12-18T11:07:06;11.03;;;7.90;;
21494;SDS011;10909;53.590;10.054;2022-12-18T11:09:34;12.30;;;8.37;;
21494;SDS011;10909;53.590;10.054;2022-12-18T11:12:14;9.93;;;7.80;;
21494;SDS011;10909;53.590;10.054;2022-12-18T11:17:21;10.57;;;7.47;;
21494;SDS011;10909;53.590;10.054;2022-12-18T11:19:59;11.10;;;8.03;;
21494;SDS011;10909;53.590;10.054;2022-12-18T11:22:54;10.13;;;7.63;;
21494;SDS011;10909;53.590;10.054;2022-12-18T11:25:31;9.97;;;7.17;;
21494;SDS011;10909;53.590;10.054;2022-12-18T11:30:46;10.63;;;6.90;;
21494;SDS011;10909;53.590;10.054;2022-12-18T11:33:17;9.87;;;7.30;;
21494;SDS011;10909;53.590;10.054;2022-12-18T11:35:52;9.33;;;7.07;;
21494;SDS011;10909;53.590;10.054;2022-12-18T11:40:51;10.03;;;7.10;;
21494;SDS011;10909;53.590;10.054;2022-12-18T11:43:28;10.87;;;7.53;;
21494;SDS011;10909;53.590;10.054;2022-12-18T11:46:17;9.30;;;6.53;;
21494;SDS011;10909;53.590;10.054;2022-12-18T11:49:25;9.40;;;7.17;;
21494;SDS011;10909;53.590;10.054;2022-12-18T11:54:34;10.63;;;7.43;;
21494;SDS011;10909;53.590;10.054;2022-12-18T12:11:02;9.60;;;7.50;;
21494;SDS011;10909;53.590;10.054;2022-12-18T12:13:52;8.83;;;6.50;;
21494;SDS011;10909;53.590;10.054;2022-12-18T12:16:25;10.13;;;7.13;;
21494;SDS011;10909;53.590;10.054;2022-12-18T12:25:25;10.10;;;7.57;;
21494;SDS011;10909;53.590;10.054;2022-12-18T12:36:21;8.47;;;6.57;;
21494;SDS011;10909;53.590;10.054;2022-12-18T12:38:51;11.30;;;7.43;;
21494;SDS011;10909;53.590;10.054;2022-12-18T12:41:21;9.20;;;6.50;;
21494;SDS011;10909;53.590;10.054;2022-12-18T12:44:31;10.77;;;7.10;;
21494;SDS011;10909;53.590;10.054;2022-12-18T12:47:07;9.53;;;6.83;;
21494;SDS011;10909;53.590;10.054;2022-12-18T12:49:48;9.67;;;7.00;;
21494;SDS011;10909;53.590;10.054;2022-12-18T12:52:17;10.10;;;6.97;;
21494;SDS011;10909;53.590;10.054;2022-12-18T12:55:00;9.63;;;7.60;;
21494;SDS011;10909;53.590;10.054;2022-12-18T12:57:37;10.83;;;7.27;;
21494;SDS011;10909;53.590;10.054;2022-12-18T13:10:23;10.23;;;6.90;;
21494;SDS011;10909;53.590;10.054;2022-12-18T13:12:56;9.70;;;7.20;;
21494;SDS011;10909;53.590;10.054;2022-12-18T13:15:32;9.37;;;6.90;;
21494;SDS011;10909;53.590;10.054;2022-12-18T13:20:35;9.80;;;7.20;;
21494;SDS011;10909;53.590;10.054;2022-12-18T13:23:04;9.93;;;7.57;;
21494;SDS011;10909;53.590;10.054;2022-12-18T13:25:54;10.93;;;7.90;;
21494;SDS011;10909;53.590;10.054;2022-12-18T13:29:07;10.90;;;8.07;;
21494;SDS011;10909;53.590;10.054;2022-12-18T13:36:41;12.00;;;8.53;;
21494;SDS011;10909;53.590;10.054;2022-12-18T13:41:39;12.60;;;8.47;;
21494;SDS011;10909;53.590;10.054;2022-12-18T13:46:47;11.40;;;8.10;;
21494;SDS011;10909;53.590;10.054;2022-12-18T13:52:16;11.17;;;8.13;;
21494;SDS011;10909;53.590;10.054;2022-12-18T13:55:00;14.47;;;8.37;;
21494;SDS011;10909;53.590;10.054;2022-12-18T13:57:34;13.20;;;9.07;;
21494;SDS011;10909;53.590;10.054;2022-12-18T14:02:44;12.30;;;7.67;;
21494;SDS011;10909;53.590;10.054;2022-12-18T14:07:59;13.17;;;8.40;;
21494;SDS011;10909;53.590;10.054;2022-12-18T14:10:30;12.33;;;8.00;;
21494;SDS011;10909;53.590;10.054;2022-12-18T14:12:57;11.17;;;7.73;;
21494;SDS011;10909;53.590;10.054;2022-12-18T14:15:39;13.40;;;8.77;;
21494;SDS011;10909;53.590;10.054;2022-12-18T14:18:23;11.13;;;8.00;;
21494;SDS011;10909;53.590;10.054;2022-12-18T14:21:13;13.17;;;8.60;;
21494;SDS011;10909;53.590;10.054;2022-12-18T14:23:46;15.10;;;9.00;;
21494;SDS011;10909;53.590;10.054;2022-12-18T14:26:22;12.50;;;8.43;;
21494;SDS011;10909;53.590;10.054;2022-12-18T14:28:48;14.37;;;9.03;;
21494;SDS011;10909;53.590;10.054;2022-12-18T14:31:21;13.07;;;9.57;;
21494;SDS011;10909;53.590;10.054;2022-12-18T14:33:49;15.53;;;9.93;;
21494;SDS011;10909;53.590;10.054;2022-12-18T14:36:23;14.73;;;9.53;;
21494;SDS011;10909;53.590;10.054;2022-12-18T14:38:51;13.97;;;8.83;;
21494;SDS011;10909;53.590;10.054;2022-12-18T14:41:20;15.73;;;10.13;;
21494;SDS011;10909;53.590;10.054;2022-12-18T14:43:48;14.40;;;9.63;;
21494;SDS011;10909;53.590;10.054;2022-12-18T14:46:25;15.77;;;9.47;;
21494;SDS011;10909;53.590;10.054;2022-12-18T14:48:55;15.50;;;9.83;;
21494;SDS011;10909;53.590;10.054;2022-12-18T14:51:23;14.90;;;9.50;;
21494;SDS011;10909;53.590;10.054;2022-12-18T14:53:54;14.80;;;9.03;;
21494;SDS011;10909;53.590;10.054;2022-12-18T14:56:27;14.93;;;9.80;;
21494;SDS011;10909;53.590;10.054;2022-12-18T14:58:58;15.83;;;9.73;;
21494;SDS011;10909;53.590;10.054;2022-12-18T15:01:28;15.47;;;9.93;;
21494;SDS011;10909;53.590;10.054;2022-12-18T15:04:02;14.87;;;9.63;;
21494;SDS011;10909;53.590;10.054;2022-12-18T15:09:03;14.60;;;8.63;;
21494;SDS011;10909;53.590;10.054;2022-12-18T15:11:49;13.37;;;9.13;;
21494;SDS011;10909;53.590;10.054;2022-12-18T15:14:42;16.73;;;9.70;;
21494;SDS011;10909;53.590;10.054;2022-12-18T15:17:41;13.73;;;8.60;;
21494;SDS011;10909;53.590;10.054;2022-12-18T15:20:01;17.03;;;9.53;;
21494;SDS011;10909;53.590;10.054;2022-12-18T15:22:34;16.20;;;9.03;;
21494;SDS011;10909;53.590;10.054;2022-12-18T15:25:02;17.40;;;9.13;;
21494;SDS011;10909;53.590;10.054;2022-12-18T15:27:46;13.83;;;8.97;;
21494;SDS011;10909;53.590;10.054;2022-12-18T15:32:43;16.60;;;9.87;;
21494;SDS011;10909;53.590;10.054;2022-12-18T15:35:14;14.33;;;9.03;;
21494;SDS011;10909;53.590;10.054;2022-12-18T15:37:40;16.13;;;9.33;;
21494;SDS011;10909;53.590;10.054;2022-12-18T15:40:07;15.90;;;9.30;;
21494;SDS011;10909;53.590;10.054;2022-12-18T15:42:36;14.37;;;9.17;;
21494;SDS011;10909;53.590;10.054;2022-12-18T15:45:21;15.67;;;9.20;;
21494;SDS011;10909;53.590;10.054;2022-12-18T15:47:46;15.13;;;9.20;;
21494;SDS011;10909;53.590;10.054;2022-12-18T15:50:12;14.67;;;9.37;;
21494;SDS011;10909;53.590;10.054;2022-12-18T15:52:41;15.57;;;9.53;;
21494;SDS011;10909;53.590;10.054;2022-12-18T15:55:13;16.33;;;10.10;;
21494;SDS011;10909;53.590;10.054;2022-12-18T15:57:59;14.97;;;9.20;;
21494;SDS011;10909;53.590;10.054;2022-12-18T16:00:26;15.30;;;9.43;;
21494;SDS011;10909;53.590;10.054;2022-12-18T16:02:53;14.70;;;9.47;;
21494;SDS011;10909;53.590;10.054;2022-12-18T16:05:23;17.20;;;9.97;;
21494;SDS011;10909;53.590;10.054;2022-12-18T16:07:51;17.43;;;10.00;;
21494;SDS011;10909;53.590;10.054;2022-12-18T16:10:17;15.70;;;9.57;;
21494;SDS011;10909;53.590;10.054;2022-12-18T16:12:45;15.13;;;9.30;;
21494;SDS011;10909;53.590;10.054;2022-12-18T16:15:14;14.00;;;9.23;;
21494;SDS011;10909;53.590;10.054;2022-12-18T16:17:41;15.03;;;9.33;;
21494;SDS011;10909;53.590;10.054;2022-12-18T16:20:17;13.00;;;8.97;;
21494;SDS011;10909;53.590;10.054;2022-12-18T16:22:46;13.80;;;8.93;;
21494;SDS011;10909;53.590;10.054;2022-12-18T16:27:46;13.80;;;9.20;;
21494;SDS011;10909;53.590;10.054;2022-12-18T16:30:13;16.80;;;9.77;;
21494;SDS011;10909;53.590;10.054;2022-12-18T16:32:43;15.30;;;9.73;;
21494;SDS011;10909;53.590;10.054;2022-12-18T16:35:13;15.77;;;9.80;;
21494;SDS011;10909;53.590;10.054;2022-12-18T16:37:40;15.57;;;10.07;;
21494;SDS011;10909;53.590;10.054;2022-12-18T16:40:07;15.17;;;9.93;;
21494;SDS011;10909;53.590;10.054;2022-12-18T16:42:38;15.63;;;9.47;;
21494;SDS011;10909;53.590;10.054;2022-12-18T16:45:06;17.13;;;9.87;;
21494;SDS011;10909;53.590;10.054;2022-12-18T16:47:33;15.27;;;10.10;;
21494;SDS011;10909;53.590;10.054;2022-12-18T16:49:59;16.10;;;10.60;;
21494;SDS011;10909;53.590;10.054;2022-12-18T16:52:25;17.17;;;9.90;;